Time;durP1;ratioP1;P1;durP2;ratioP2;P2;SDS_P1;SDS_P2;PMS_P1;PMS_P2;Temp;Humidity;BMP_temperature;BMP_pressure;BME280_temperature;BME280_humidity;BME280_pressure;Samples;Min_cycle;Max_cycle;Signal;HPM_P1;HPM_P2
2022/02/22 00:01:56;;;;;;;34.63;12.55;;;;;;;3.67;60.71;95126.30;1700399;84;21026;-84
2022/02/22 00:04:21;;;;;;;30.00;10.18;;;;;;;3.66;60.85;95127.27;1700270;84;21110;-84
2022/02/22 00:06:47;;;;;;;41.90;14.85;;;;;;;3.67;61.04;95127.58;1700097;84;21075;-84
2022/02/22 00:09:13;;;;;;;38.55;13.05;;;;;;;3.69;61.16;95123.06;1700234;84;21449;-83
2022/02/22 00:11:39;;;;;;;55.00;18.77;;;;;;;3.70;61.18;95123.38;1700628;84;20979;-83
2022/02/22 00:14:05;;;;;;;37.40;13.70;;;;;;;3.71;61.27;95127.06;1700236;84;21154;-83
2022/02/22 00:16:31;;;;;;;21.75;9.43;;;;;;;3.74;61.51;95116.47;1668576;84;21023;-83
2022/02/22 00:18:57;;;;;;;19.32;8.13;;;;;;;3.77;61.55;95125.61;1668849;84;21039;-84
2022/02/22 00:21:22;;;;;;;14.73;5.80;;;;;;;3.79;61.69;95120.61;1700187;84;20988;-84
2022/02/22 00:23:48;;;;;;;49.45;18.45;;;;;;;3.81;62.28;95114.01;1700368;84;21027;-83
2022/02/22 00:26:15;;;;;;;38.92;13.83;;;;;;;3.85;61.83;95126.82;1699997;84;21000;-84
2022/02/22 00:28:41;;;;;;;34.10;11.70;;;;;;;3.88;61.95;95117.48;1700314;84;21381;-84
2022/02/22 00:31:07;;;;;;;32.35;10.35;;;;;;;3.94;61.99;95123.73;1700423;84;20988;-84
2022/02/22 00:33:33;;;;;;;33.02;11.75;;;;;;;3.99;61.96;95129.14;1691929;83;21007;-84
2022/02/22 00:35:59;;;;;;;21.33;7.83;;;;;;;4.01;61.90;95130.56;1688784;84;20988;-83
2022/02/22 00:38:25;;;;;;;34.18;11.73;;;;;;;4.04;61.94;95126.85;1700311;84;21027;-84
2022/02/22 00:40:51;;;;;;;48.00;18.10;;;;;;;4.05;61.95;95126.67;1700216;84;21027;-83
2022/02/22 00:43:16;;;;;;;58.48;19.95;;;;;;;4.06;61.91;95121.84;1700624;84;21398;-84
2022/02/22 00:45:42;;;;;;;56.60;20.12;;;;;;;4.02;61.81;95122.37;1700669;83;21082;-84
2022/02/22 00:48:08;;;;;;;37.80;14.78;;;;;;;4.07;61.97;95136.33;1701060;84;21381;-84
2022/02/22 00:50:34;;;;;;;52.27;19.70;;;;;;;4.09;61.96;95137.44;1681263;84;20955;-84
2022/02/22 00:53:00;;;;;;;52.05;16.23;;;;;;;4.09;62.08;95136.95;1701033;84;20999;-84
2022/02/22 00:55:26;;;;;;;24.60;8.88;;;;;;;4.08;62.09;95141.78;1700821;84;21050;-84
2022/02/22 00:57:52;;;;;;;29.60;11.10;;;;;;;4.09;62.18;95144.66;1700990;84;21413;-83
2022/02/22 01:00:19;;;;;;;22.87;8.78;;;;;;;4.09;62.05;95145.95;1700871;84;21102;-84
2022/02/22 01:02:44;;;;;;;30.02;10.98;;;;;;;4.11;62.15;95146.57;1681332;84;21397;-84
2022/02/22 01:05:10;;;;;;;41.63;15.13;;;;;;;4.12;62.14;95147.38;1701034;84;20939;-84
2022/02/22 01:07:36;;;;;;;44.63;16.40;;;;;;;4.13;62.05;95148.97;1701085;84;21402;-83
2022/02/22 01:10:03;;;;;;;10.25;4.85;;;;;;;4.13;62.12;95154.11;1700965;84;21389;-83
2022/02/22 01:12:29;;;;;;;38.88;14.20;;;;;;;4.13;62.17;95145.91;1700933;84;21069;-84
2022/02/22 01:14:55;;;;;;;33.67;12.47;;;;;;;4.12;62.05;95153.31;1700800;84;21134;-84
2022/02/22 01:17:21;;;;;;;25.77;9.58;;;;;;;4.13;62.26;95160.05;1700883;84;21098;-84
2022/02/22 01:19:48;;;;;;;17.07;7.58;;;;;;;4.11;62.36;95155.56;1700864;84;21066;-84
2022/02/22 01:22:13;;;;;;;37.38;13.80;;;;;;;4.10;62.28;95171.97;1701033;84;21115;-84
2022/02/22 01:24:39;;;;;;;43.52;17.07;;;;;;;4.09;62.34;95170.37;1700909;84;21055;-84
2022/02/22 01:27:05;;;;;;;37.45;14.03;;;;;;;4.09;62.46;95181.94;1701169;84;21046;-84
2022/02/22 01:29:31;;;;;;;17.80;7.33;;;;;;;4.08;62.54;95180.34;1700916;84;21326;-84
2022/02/22 01:31:56;;;;;;;41.53;16.42;;;;;;;4.07;62.59;95189.51;1700695;83;21354;-84
2022/02/22 01:34:22;;;;;;;32.53;12.15;;;;;;;4.07;62.65;95181.31;1698859;84;20987;-83
2022/02/22 01:36:48;;;;;;;25.85;10.55;;;;;;;4.05;62.66;95189.65;1700923;84;21026;-84
2022/02/22 01:39:14;;;;;;;34.50;13.45;;;;;;;4.05;62.75;95192.70;1701090;84;21042;-84
2022/02/22 01:41:41;;;;;;;31.23;12.50;;;;;;;4.03;62.81;95186.45;1701080;84;21054;-84
2022/02/22 01:44:06;;;;;;;18.00;7.08;;;;;;;4.04;62.91;95198.33;1681061;84;20959;-84
2022/02/22 01:46:33;;;;;;;9.15;4.25;;;;;;;4.03;63.12;95192.88;1689017;84;21062;-84
2022/02/22 01:48:59;;;;;;;11.35;4.25;;;;;;;4.03;62.92;95207.02;1689028;85;21004;-83
2022/02/22 01:51:25;;;;;;;14.78;7.05;;;;;;;4.04;63.10;95212.95;1689048;84;21010;-84
2022/02/22 01:53:50;;;;;;;16.50;5.17;;;;;;;4.03;63.12;95210.88;1689170;84;21437;-83
2022/02/22 01:56:17;;;;;;;34.40;13.78;;;;;;;4.02;63.15;95215.70;1688919;84;21101;-84
2022/02/22 01:58:43;;;;;;;28.40;11.00;;;;;;;4.04;63.51;95221.95;1688871;84;20995;-83
2022/02/22 02:01:09;;;;;;;10.28;4.12;;;;;;;4.04;63.36;95228.38;1689082;84;21350;-83
2022/02/22 02:03:34;;;;;;;12.95;5.75;;;;;;;4.04;63.60;95234.80;1688866;84;20975;-84
2022/02/22 02:06:00;;;;;;;8.68;4.12;;;;;;;4.05;63.63;95240.26;1688955;84;21055;-84
2022/02/22 02:08:26;;;;;;;25.97;10.13;;;;;;;4.04;63.92;95240.75;1688943;85;20960;-84
2022/02/22 02:10:52;;;;;;;8.75;3.17;;;;;;;4.03;63.88;95248.14;1689019;84;21098;-84
2022/02/22 02:13:17;;;;;;;5.55;2.47;;;;;;;4.03;63.90;95248.14;1689103;85;21042;-83
2022/02/22 02:15:44;;;;;;;4.28;2.30;;;;;;;4.05;64.17;95253.91;1689145;84;20995;-84
2022/02/22 02:18:09;;;;;;;2.77;1.55;;;;;;;4.03;64.68;95249.42;1689006;84;21425;-84
2022/02/22 02:20:35;;;;;;;23.20;8.60;;;;;;;4.01;64.72;95260.37;1689022;84;21050;-84
2022/02/22 02:23:01;;;;;;;26.57;11.22;;;;;;;3.96;64.94;95254.94;1689062;84;21002;-84
2022/02/22 02:25:26;;;;;;;5.85;2.42;;;;;;;4.00;65.27;95261.83;1689211;84;21003;-82
2022/02/22 02:27:52;;;;;;;7.40;3.00;;;;;;;3.99;65.36;95279.02;1689088;84;21014;-84
2022/02/22 02:30:18;;;;;;;14.43;6.12;;;;;;;3.98;65.80;95281.27;1689016;85;20991;-84
2022/02/22 02:32:44;;;;;;;22.35;9.15;;;;;;;3.95;66.19;95279.04;1689156;83;20975;-84
2022/02/22 02:35:09;;;;;;;5.75;2.25;;;;;;;3.93;66.28;95281.47;1688877;85;20968;-83
2022/02/22 02:37:38;;;;;;;4.25;1.60;;;;;;;3.93;66.40;95286.12;1688686;85;21043;-83
2022/02/22 02:40:08;;;;;;;16.65;6.95;;;;;;;3.96;66.58;95293.98;1689041;85;21038;-84
2022/02/22 02:42:39;;;;;;;27.60;9.25;;;;;;;3.98;66.93;95288.18;1688883;84;20995;-83
2022/02/22 02:45:06;;;;;;;36.75;13.75;;;;;;;3.97;66.97;95298.95;1688842;84;21159;-83
2022/02/22 02:47:32;;;;;;;6.17;2.83;;;;;;;3.98;67.11;95297.17;1689021;85;21003;-84
2022/02/22 02:49:58;;;;;;;5.75;2.50;;;;;;;3.96;67.29;95308.91;1689026;85;21006;-84
2022/02/22 02:52:24;;;;;;;6.20;3.08;;;;;;;3.94;67.56;95314.70;1669038;85;20990;-84
2022/02/22 02:54:49;;;;;;;6.03;2.70;;;;;;;3.92;67.77;95330.78;1689123;85;21000;-83
2022/02/22 02:57:15;;;;;;;10.75;3.87;;;;;;;3.90;67.86;95335.26;1688771;85;21015;-84
2022/02/22 02:59:41;;;;;;;6.60;2.33;;;;;;;3.86;68.15;95338.65;1688995;85;21043;-83
2022/02/22 03:02:07;;;;;;;4.90;2.35;;;;;;;3.81;69.04;95340.12;1688823;85;20924;-84
2022/02/22 03:04:32;;;;;;;4.72;1.87;;;;;;;3.79;69.42;95348.48;1688968;85;20951;-84
2022/02/22 03:06:58;;;;;;;5.33;1.87;;;;;;;3.77;68.91;95354.27;1688877;85;21002;-84
2022/02/22 03:09:24;;;;;;;22.73;7.90;;;;;;;3.78;68.94;95359.73;1688957;85;21380;-84
2022/02/22 03:11:50;;;;;;;5.65;2.77;;;;;;;3.80;69.17;95365.50;1688914;85;20994;-84
2022/02/22 03:14:16;;;;;;;11.25;4.75;;;;;;;3.77;69.31;95367.92;1689054;85;21389;-84
2022/02/22 03:16:42;;;;;;;5.05;2.50;;;;;;;3.75;69.50;95362.15;1688875;84;21043;-83
2022/02/22 03:19:08;;;;;;;4.87;2.30;;;;;;;3.74;69.82;95369.98;1689163;84;20995;-84
2022/02/22 03:21:34;;;;;;;28.10;11.70;;;;;;;3.69;70.28;95386.39;1669053;85;20986;-84
2022/02/22 03:24:01;;;;;;;6.47;3.20;;;;;;;3.63;70.17;95385.77;1688785;85;21035;-84
2022/02/22 03:26:27;;;;;;;5.67;2.25;;;;;;;3.61;70.54;95397.50;1688960;85;21374;-84
2022/02/22 03:28:53;;;;;;;4.40;2.17;;;;;;;3.57;71.42;95409.84;1688764;85;20999;-83
2022/02/22 03:31:19;;;;;;;5.58;2.10;;;;;;;3.53;71.80;95417.55;1688793;84;20959;-84
2022/02/22 03:33:44;;;;;;;7.75;4.10;;;;;;;3.44;72.54;95431.86;1676910;83;21283;-84
2022/02/22 03:36:10;;;;;;;5.67;2.80;;;;;;;3.33;73.21;95436.82;1688824;85;21086;-84
2022/02/22 03:38:37;;;;;;;5.67;2.65;;;;;;;3.22;73.75;95447.39;1688668;84;21146;-84
2022/02/22 03:41:02;;;;;;;6.37;3.65;;;;;;;3.11;74.55;95451.57;1689017;84;21413;-84
2022/02/22 03:43:29;;;;;;;7.00;3.25;;;;;;;3.03;74.46;95459.23;1688955;85;21006;-84
2022/02/22 03:45:54;;;;;;;15.65;7.42;;;;;;;3.00;74.16;95459.08;1694383;84;21532;-84
2022/02/22 03:48:20;;;;;;;6.50;4.35;;;;;;;2.99;74.75;95472.87;1700395;84;21038;-84
2022/02/22 03:50:46;;;;;;;4.72;3.20;;;;;;;2.96;74.78;95473.99;1700377;84;21031;-84
2022/02/22 03:53:12;;;;;;;8.80;5.60;;;;;;;2.98;75.33;95486.19;1700395;84;21401;-84
2022/02/22 03:55:38;;;;;;;5.12;2.85;;;;;;;2.98;75.54;95492.59;1700432;84;21018;-84
2022/02/22 03:58:03;;;;;;;14.05;7.28;;;;;;;2.98;75.35;95501.58;1700245;84;21038;-84
2022/02/22 04:00:30;;;;;;;11.00;5.22;;;;;;;2.95;75.45;95510.88;1668489;84;21362;-84
2022/02/22 04:02:56;;;;;;;4.00;3.17;;;;;;;2.93;75.75;95517.94;1700498;84;21027;-84
2022/02/22 04:05:21;;;;;;;5.72;3.37;;;;;;;2.92;75.65;95521.91;1700370;84;20976;-84
2022/02/22 04:07:48;;;;;;;3.37;2.58;;;;;;;2.89;75.54;95536.34;1700349;84;21384;-84
2022/02/22 04:10:14;;;;;;;5.40;3.80;;;;;;;2.88;76.81;95538.58;1700302;84;21035;-84
2022/02/22 04:12:40;;;;;;;3.10;2.80;;;;;;;2.84;76.09;95548.84;1700277;84;21019;-83
2022/02/22 04:15:07;;;;;;;4.62;2.98;;;;;;;2.82;75.65;95554.12;1700329;84;21036;-84
2022/02/22 04:17:33;;;;;;;3.22;2.92;;;;;;;2.81;75.91;95558.13;1700260;84;21039;-84
2022/02/22 04:19:59;;;;;;;4.05;3.40;;;;;;;2.78;76.10;95569.98;1700459;84;21015;-84
2022/02/22 04:22:25;;;;;;;3.20;2.80;;;;;;;2.74;75.97;95586.62;1700296;84;21070;-84
2022/02/22 04:24:51;;;;;;;4.12;3.00;;;;;;;2.69;75.98;95584.04;1700432;84;21350;-83
2022/02/22 04:27:17;;;;;;;4.10;3.27;;;;;;;2.68;76.13;95586.28;1700301;84;21011;-83
2022/02/22 04:29:43;;;;;;;3.67;3.33;;;;;;;2.68;75.76;95597.02;1700096;84;21415;-83
2022/02/22 04:32:09;;;;;;;5.35;3.62;;;;;;;2.69;75.49;95597.34;1699244;83;21138;-84
2022/02/22 04:34:35;;;;;;;4.25;2.60;;;;;;;2.70;75.87;95598.47;1681756;84;21090;-84
2022/02/22 04:37:00;;;;;;;5.17;2.80;;;;;;;2.65;75.19;95596.85;1700251;84;21062;-83
2022/02/22 04:39:26;;;;;;;3.77;2.90;;;;;;;2.60;74.98;95599.08;1700382;84;20968;-84
2022/02/22 04:41:52;;;;;;;3.95;3.00;;;;;;;2.54;74.96;95607.83;1700391;84;20967;-84
2022/02/22 04:44:19;;;;;;;5.65;3.00;;;;;;;2.56;75.14;95616.98;1700196;84;21023;-83
2022/02/22 04:46:45;;;;;;;6.45;3.22;;;;;;;2.57;74.96;95612.17;1699978;84;22221;-84
2022/02/22 04:49:11;;;;;;;6.35;4.35;;;;;;;2.57;74.70;95620.34;1700363;84;20992;-83
2022/02/22 04:51:39;;;;;;;5.78;3.22;;;;;;;2.58;74.52;95627.89;1700350;84;21012;-83
2022/02/22 04:54:05;;;;;;;8.75;4.42;;;;;;;2.59;74.20;95632.54;1698887;84;21000;-83
2022/02/22 04:56:31;;;;;;;5.40;3.60;;;;;;;2.56;74.29;95632.37;1700201;84;21504;-84
2022/02/22 04:58:57;;;;;;;9.70;4.92;;;;;;;2.56;74.24;95635.41;1700261;84;21015;-84
2022/02/22 05:01:23;;;;;;;7.60;4.33;;;;;;;2.49;73.83;95633.94;1700430;84;21003;-83
2022/02/22 05:03:49;;;;;;;6.55;3.33;;;;;;;2.48;73.84;95648.19;1700421;84;21532;-84
2022/02/22 05:06:15;;;;;;;6.10;2.10;;;;;;;2.45;73.52;95644.17;1700280;84;20980;-84
2022/02/22 05:08:41;;;;;;;4.55;2.35;;;;;;;2.43;73.18;95647.34;1700242;84;21470;-84
2022/02/22 05:11:06;;;;;;;3.87;2.52;;;;;;;2.45;73.14;95644.65;1700373;84;21079;-83
2022/02/22 05:13:32;;;;;;;8.55;4.28;;;;;;;2.41;73.01;95655.66;1700521;84;21102;-84
2022/02/22 05:15:58;;;;;;;6.60;2.47;;;;;;;2.44;73.28;95660.96;1668326;84;21655;-83
2022/02/22 05:18:24;;;;;;;6.55;3.77;;;;;;;2.37;73.19;95660.28;1700179;84;21003;-83
2022/02/22 05:20:56;;;;;;;10.75;3.12;;;;;;;2.35;73.16;95666.52;1700450;84;20975;-83
2022/02/22 05:23:26;;;;;;;11.00;4.65;;;;;;;2.35;73.09;95671.17;1700438;84;21034;-83
2022/02/22 05:25:52;;;;;;;9.25;4.20;;;;;;;2.32;73.11;95671.95;1700230;84;21102;-83
2022/02/22 05:28:18;;;;;;;4.70;2.80;;;;;;;2.28;72.98;95674.01;1700402;84;21055;-83
2022/02/22 05:30:49;;;;;;;4.83;3.00;;;;;;;2.31;72.92;95684.44;1700469;84;21035;-83
2022/02/22 05:33:16;;;;;;;25.52;17.07;;;;;;;2.33;73.02;95677.41;1698565;83;21019;-84
2022/02/22 05:35:49;;;;;;;95.95;30.57;;;;;;;2.36;72.91;95675.81;1700370;84;21436;-83
2022/02/22 05:38:15;;;;;;;50.80;15.10;;;;;;;2.36;72.98;95685.59;1700417;84;21079;-83
2022/02/22 05:40:41;;;;;;;48.98;14.40;;;;;;;2.35;72.80;95685.75;1700652;84;21401;-83
2022/02/22 05:43:07;;;;;;;25.90;9.05;;;;;;;2.36;73.09;95677.91;1700550;84;21019;-83
2022/02/22 05:45:33;;;;;;;26.00;8.50;;;;;;;2.31;72.80;95689.09;1700472;83;20995;-83
2022/02/22 05:47:59;;;;;;;48.02;14.93;;;;;;;2.32;72.70;95694.55;1701000;84;21424;-84
2022/02/22 05:50:24;;;;;;;176.65;71.95;;;;;;;2.37;73.11;95706.91;1700884;84;20970;-83
2022/02/22 05:52:53;;;;;;;76.57;27.13;;;;;;;2.36;72.84;95703.55;1680895;84;20987;-83
2022/02/22 05:55:19;;;;;;;69.07;21.62;;;;;;;2.37;72.87;95705.16;1700909;84;21063;-83
2022/02/22 05:57:47;;;;;;;38.38;11.75;;;;;;;2.36;72.84;95718.12;1700996;84;20979;-83
2022/02/22 06:00:13;;;;;;;69.07;22.62;;;;;;;2.36;72.85;95725.34;1692533;84;21015;-84
2022/02/22 06:02:39;;;;;;;63.45;20.02;;;;;;;2.38;72.79;95718.78;1700957;84;21010;-83
2022/02/22 06:05:05;;;;;;;60.60;18.98;;;;;;;2.40;72.82;95724.08;1700971;84;22005;-83
2022/02/22 06:07:31;;;;;;;60.67;21.82;;;;;;;2.40;72.59;95734.81;1701086;84;21038;-83
2022/02/22 06:09:57;;;;;;;59.55;20.52;;;;;;;2.38;72.52;95731.12;1700772;84;21070;-83
2022/02/22 06:12:23;;;;;;;29.98;9.30;;;;;;;2.37;72.63;95729.51;1700983;84;21448;-84
2022/02/22 06:14:49;;;;;;;74.53;25.90;;;;;;;2.38;72.74;95731.59;1700954;84;21010;-83
2022/02/22 06:17:14;;;;;;;34.33;13.28;;;;;;;2.40;72.65;95739.94;1700678;84;21033;-83
2022/02/22 06:19:41;;;;;;;26.10;9.70;;;;;;;2.43;72.39;95741.41;1700936;84;21065;-83
2022/02/22 06:22:06;;;;;;;46.68;15.18;;;;;;;2.44;72.34;95751.98;1700998;84;21307;-83
2022/02/22 06:24:32;;;;;;;46.35;16.75;;;;;;;2.45;72.37;95753.15;1700822;84;21006;-83
2022/02/22 06:26:58;;;;;;;38.33;13.48;;;;;;;2.47;72.34;95753.00;1700849;84;21002;-83
2022/02/22 06:29:24;;;;;;;12.07;6.22;;;;;;;2.46;72.57;95759.08;1680677;84;21012;-84
2022/02/22 06:31:50;;;;;;;57.05;18.67;;;;;;;2.47;72.75;95758.13;1700957;84;21400;-83
2022/02/22 06:34:18;;;;;;;66.45;23.67;;;;;;;2.47;72.32;95767.11;1701013;84;21014;-84
2022/02/22 06:36:43;;;;;;;16.97;6.00;;;;;;;2.49;72.45;95771.13;1700797;84;21007;-83
2022/02/22 06:39:09;;;;;;;12.60;9.90;;;;;;;2.52;72.22;95782.37;1681109;84;21255;-84
2022/02/22 06:41:35;;;;;;;11.63;7.55;;;;;;;2.53;72.40;95779.33;1680740;84;21077;-83
2022/02/22 06:44:01;;;;;;;28.27;9.43;;;;;;;2.54;72.58;95777.90;1701084;84;20998;-84
2022/02/22 06:46:27;;;;;;;42.53;12.82;;;;;;;2.59;72.83;95779.53;1695971;84;21034;-83
2022/02/22 06:48:53;;;;;;;42.45;12.03;;;;;;;2.65;72.43;95778.16;1689117;84;21095;-84
2022/02/22 06:51:18;;;;;;;23.73;8.68;;;;;;;2.70;72.23;95773.39;1688940;84;21063;-83
2022/02/22 06:53:44;;;;;;;35.48;11.88;;;;;;;2.75;72.15;95775.50;1688826;84;21430;-84
2022/02/22 06:56:11;;;;;;;33.92;13.03;;;;;;;2.79;72.11;95784.53;1669296;85;21113;-83
2022/02/22 06:58:36;;;;;;;30.15;9.50;;;;;;;2.82;71.92;95780.38;1688934;84;21050;-83
2022/02/22 07:01:02;;;;;;;11.43;4.83;;;;;;;2.81;71.79;95779.58;1688953;85;21370;-83
2022/02/22 07:03:28;;;;;;;11.18;4.83;;;;;;;2.86;71.75;95779.93;1659964;84;21023;-85
2022/02/22 07:05:53;;;;;;;10.43;3.95;;;;;;;2.93;71.64;95777.11;1682274;85;21027;-83
2022/02/22 07:08:19;;;;;;;24.65;7.75;;;;;;;3.03;71.45;95789.03;1688997;84;21697;-83
2022/02/22 07:10:45;;;;;;;18.85;7.35;;;;;;;3.08;71.47;95788.91;1688892;84;20991;-83
2022/02/22 07:13:10;;;;;;;15.70;7.50;;;;;;;3.14;71.51;95790.89;1689065;84;20975;-84
2022/02/22 07:15:36;;;;;;;9.10;4.80;;;;;;;3.19;71.23;95793.00;1688962;84;21035;-83
2022/02/22 07:18:07;;;;;;;7.78;3.27;;;;;;;3.21;71.33;95792.37;1688816;85;21019;-84
2022/02/22 07:20:34;;;;;;;5.80;2.75;;;;;;;3.24;71.02;95805.70;1689115;84;20999;-84
2022/02/22 07:23:00;;;;;;;7.92;3.20;;;;;;;3.28;71.16;95811.37;1689088;84;21030;-83
2022/02/22 07:25:27;;;;;;;10.78;3.83;;;;;;;3.28;70.88;95821.16;1669321;85;21484;-83
2022/02/22 07:27:56;;;;;;;10.20;4.33;;;;;;;3.30;70.72;95818.44;1688831;85;21003;-83
2022/02/22 07:30:21;;;;;;;4.85;2.22;;;;;;;3.29;70.84;95838.66;1688866;85;21051;-83
2022/02/22 07:32:48;;;;;;;14.95;5.20;;;;;;;3.23;71.50;95843.89;1689069;84;21027;-84
2022/02/22 07:35:14;;;;;;;8.60;3.87;;;;;;;3.15;72.00;95850.27;1689071;84;21015;-84
2022/02/22 07:37:40;;;;;;;7.83;3.00;;;;;;;3.11;72.57;95844.30;1688821;85;21027;-83
2022/02/22 07:40:08;;;;;;;6.62;3.02;;;;;;;3.09;72.51;95852.59;1689022;85;21406;-83
2022/02/22 07:42:37;;;;;;;6.15;3.05;;;;;;;3.09;72.96;95851.31;1688621;85;21015;-84
2022/02/22 07:45:04;;;;;;;7.10;3.15;;;;;;;3.05;73.25;95850.81;1688822;84;20995;-83
2022/02/22 07:47:29;;;;;;;9.58;4.17;;;;;;;3.07;73.66;95860.45;1688718;84;21413;-83
2022/02/22 07:49:55;;;;;;;11.70;5.90;;;;;;;3.11;73.85;95856.66;1688811;85;21007;-84
2022/02/22 07:52:21;;;;;;;21.15;11.08;;;;;;;3.17;73.97;95854.77;1688945;85;21018;-83
2022/02/22 07:54:47;;;;;;;63.87;24.07;;;;;;;3.24;74.28;95857.05;1689027;85;21073;-83
2022/02/22 07:57:12;;;;;;;95.67;32.70;;;;;;;3.31;73.99;95864.98;1688992;85;21468;-83
2022/02/22 07:59:38;;;;;;;47.15;17.60;;;;;;;3.37;73.87;95863.09;1688934;84;21050;-83
2022/02/22 08:02:04;;;;;;;17.75;8.05;;;;;;;3.44;73.67;95864.60;1669126;85;20972;-83
2022/02/22 08:04:30;;;;;;;47.62;17.10;;;;;;;3.52;73.81;95859.50;1688945;84;21347;-84
2022/02/22 08:06:56;;;;;;;35.98;13.10;;;;;;;3.66;73.85;95858.15;1688860;85;20991;-83
2022/02/22 08:09:22;;;;;;;41.95;15.10;;;;;;;3.75;73.54;95861.91;1688887;85;20992;-84
2022/02/22 08:11:48;;;;;;;44.42;16.75;;;;;;;3.80;73.19;95864.82;1689193;84;21015;-84
2022/02/22 08:14:14;;;;;;;18.02;6.97;;;;;;;3.84;72.85;95858.89;1689033;85;21014;-84
2022/02/22 08:16:40;;;;;;;9.35;4.17;;;;;;;3.87;72.60;95870.14;1688926;85;21613;-83
2022/02/22 08:19:07;;;;;;;7.37;4.60;;;;;;;3.84;71.67;95869.17;1689194;85;21111;-84
2022/02/22 08:21:34;;;;;;;6.83;4.40;;;;;;;3.84;71.70;95871.74;1689040;85;21015;-84
2022/02/22 08:24:00;;;;;;;7.28;4.30;;;;;;;3.80;71.26;95878.95;1689079;85;21026;-84
2022/02/22 08:26:25;;;;;;;5.90;4.35;;;;;;;3.80;71.53;95889.72;1688984;83;21027;-83
2022/02/22 08:28:51;;;;;;;7.72;4.50;;;;;;;3.79;70.89;95888.11;1656502;84;21353;-84
2022/02/22 08:31:17;;;;;;;7.67;4.62;;;;;;;3.81;71.06;95901.61;1687505;85;20999;-84
2022/02/22 08:33:43;;;;;;;6.67;3.98;;;;;;;3.82;70.99;95910.45;1689093;84;21019;-84
2022/02/22 08:36:12;;;;;;;8.13;4.20;;;;;;;3.85;70.79;95913.19;1689024;84;21362;-83
2022/02/22 08:38:38;;;;;;;6.85;4.28;;;;;;;3.84;71.06;95922.66;1688993;85;21030;-84
2022/02/22 08:41:06;;;;;;;7.47;4.55;;;;;;;3.85;70.94;95911.91;1688734;85;21020;-83
2022/02/22 08:43:33;;;;;;;6.70;4.75;;;;;;;3.89;71.27;95917.06;1689063;85;20995;-84
2022/02/22 08:46:01;;;;;;;5.40;4.17;;;;;;;3.95;71.05;95928.04;1689034;85;21023;-83
2022/02/22 08:48:27;;;;;;;7.85;4.30;;;;;;;3.99;70.61;95922.11;1698651;84;21108;-84
2022/02/22 08:50:54;;;;;;;9.33;4.30;;;;;;;4.00;70.85;95920.67;1698626;84;21033;-83
2022/02/22 08:53:20;;;;;;;7.55;4.80;;;;;;;4.01;70.58;95928.70;1698702;84;21089;-84
2022/02/22 08:55:45;;;;;;;18.82;8.70;;;;;;;4.04;70.40;95930.97;1698870;84;21042;-84
2022/02/22 08:58:13;;;;;;;20.12;9.73;;;;;;;4.10;70.62;95930.37;1698814;84;21505;-84
2022/02/22 09:00:39;;;;;;;7.67;3.60;;;;;;;4.18;70.55;95934.27;1698721;84;21025;-83
2022/02/22 09:03:05;;;;;;;6.20;3.40;;;;;;;4.27;70.40;95943.32;1699030;84;21015;-84
2022/02/22 09:05:33;;;;;;;4.80;2.85;;;;;;;4.31;69.96;95946.71;1698912;84;21047;-84
2022/02/22 09:07:58;;;;;;;4.03;2.55;;;;;;;4.35;69.90;95947.20;1698893;84;21361;-84
2022/02/22 09:10:24;;;;;;;3.83;2.42;;;;;;;4.41;70.07;95949.19;1698926;84;20975;-84
2022/02/22 09:12:50;;;;;;;4.45;2.70;;;;;;;4.48;69.87;95939.88;1698939;84;20975;-84
2022/02/22 09:15:17;;;;;;;4.83;3.00;;;;;;;4.57;70.11;95944.11;1698949;84;21062;-84
2022/02/22 09:17:43;;;;;;;5.65;3.20;;;;;;;4.68;69.62;95950.23;1698766;84;21038;-84
2022/02/22 09:20:10;;;;;;;5.15;3.27;;;;;;;4.77;69.46;95949.31;1679197;84;21051;-84
2022/02/22 09:22:36;;;;;;;7.70;4.90;;;;;;;4.86;69.30;95951.42;1698917;84;21996;-83
2022/02/22 09:25:03;;;;;;;6.70;3.92;;;;;;;4.98;69.29;95957.89;1698887;84;21357;-84
2022/02/22 09:27:29;;;;;;;7.67;4.92;;;;;;;5.11;69.19;95958.25;1695473;83;21011;-84
2022/02/22 09:29:56;;;;;;;5.28;3.40;;;;;;;5.21;68.39;95954.74;1682231;84;21393;-84
2022/02/22 09:32:23;;;;;;;4.90;2.67;;;;;;;5.28;68.01;95957.80;1698985;84;20979;-84
2022/02/22 09:34:50;;;;;;;4.92;2.40;;;;;;;5.35;68.08;95955.38;1698605;84;21034;-84
2022/02/22 09:37:16;;;;;;;3.62;2.37;;;;;;;5.37;67.36;95958.14;1698841;84;21030;-84
2022/02/22 09:39:42;;;;;;;3.67;2.50;;;;;;;5.38;66.99;95967.97;1698876;84;20999;-83
2022/02/22 09:42:08;;;;;;;6.30;2.52;;;;;;;5.37;67.31;95958.62;1698807;84;21382;-84
2022/02/22 09:44:37;;;;;;;3.87;2.47;;;;;;;5.40;67.60;95967.32;1698781;84;21007;-84
2022/02/22 09:47:04;;;;;;;4.45;2.87;;;;;;;5.40;66.10;95958.30;1695536;84;21095;-84
2022/02/22 09:49:29;;;;;;;4.62;2.37;;;;;;;5.36;66.89;95958.27;1689376;85;20984;-84
2022/02/22 09:51:55;;;;;;;4.00;2.50;;;;;;;5.35;67.02;95965.69;1669434;85;21520;-84
2022/02/22 09:54:21;;;;;;;12.40;6.72;;;;;;;5.38;67.78;95967.97;1689202;84;21023;-84
2022/02/22 09:56:47;;;;;;;4.35;2.90;;;;;;;5.36;67.21;95977.11;1689327;84;21094;-84
2022/02/22 09:59:13;;;;;;;6.65;3.30;;;;;;;5.37;67.34;95980.05;1689105;84;20987;-83
2022/02/22 10:01:46;;;;;;;6.87;3.37;;;;;;;5.42;67.21;95980.36;1689277;84;21140;-84
2022/02/22 10:04:12;;;;;;;5.62;2.80;;;;;;;5.52;67.50;95987.13;1689378;84;21077;-84
2022/02/22 10:06:38;;;;;;;4.60;3.35;;;;;;;5.57;67.27;95984.89;1689200;85;21418;-84
2022/02/22 10:09:05;;;;;;;6.95;3.87;;;;;;;5.61;66.80;95985.69;1689349;84;20975;-84
2022/02/22 10:11:46;;;;;;;7.05;5.20;;;;;;;5.72;67.38;95985.87;1689200;84;21365;-84
2022/02/22 10:14:26;;;;;;;6.45;4.92;;;;;;;5.84;67.40;95981.17;1671424;85;21477;-84
2022/02/22 10:16:54;;;;;;;4.28;3.10;;;;;;;5.90;66.49;95989.11;1688920;85;21536;-84
2022/02/22 10:19:21;;;;;;;4.08;3.12;;;;;;;5.92;66.26;95985.88;1689037;85;21014;-84
2022/02/22 10:21:51;;;;;;;5.28;4.03;;;;;;;5.88;64.98;95997.47;1669265;85;21031;-84
2022/02/22 10:24:17;;;;;;;5.05;3.72;;;;;;;5.85;65.72;96002.12;1689015;85;21339;-84
2022/02/22 10:26:43;;;;;;;4.90;4.47;;;;;;;5.86;65.76;96008.91;1689071;84;20971;-84
2022/02/22 10:29:17;;;;;;;3.70;2.58;;;;;;;5.84;66.02;95998.73;1689316;84;20960;-84
2022/02/22 10:31:43;;;;;;;4.37;2.35;;;;;;;5.84;66.24;96001.31;1689160;84;21122;-84
2022/02/22 10:34:09;;;;;;;2.80;1.85;;;;;;;5.90;66.51;96005.88;1689170;84;21461;-84
2022/02/22 10:36:39;;;;;;;2.60;1.80;;;;;;;5.98;66.38;96004.56;1689155;85;21019;-84
2022/02/22 10:39:11;;;;;;;3.67;2.27;;;;;;;6.13;66.24;96005.20;1668460;85;21063;-84
2022/02/22 10:41:43;;;;;;;3.05;1.90;;;;;;;6.21;66.51;95997.47;1689384;85;21082;-84
2022/02/22 10:44:11;;;;;;;4.17;2.15;;;;;;;6.22;65.66;96007.63;1689216;84;21103;-84
2022/02/22 10:46:40;;;;;;;3.72;2.10;;;;;;;6.13;64.97;96014.23;1689412;84;21031;-84
2022/02/22 10:49:09;;;;;;;4.28;2.55;;;;;;;5.95;65.05;96020.37;1698117;82;21027;-84
2022/02/22 10:51:41;;;;;;;5.03;2.37;;;;;;;5.73;66.98;96028.23;1700520;84;21437;-84
2022/02/22 10:54:08;;;;;;;3.25;2.10;;;;;;;5.60;68.13;96034.83;1700642;84;21383;-84
2022/02/22 10:56:35;;;;;;;3.85;2.90;;;;;;;5.45;68.40;96036.41;1700588;84;21035;-85
2022/02/22 10:59:04;;;;;;;6.08;3.77;;;;;;;5.35;69.29;96030.90;1700415;84;21393;-84
2022/02/22 11:01:31;;;;;;;6.25;3.60;;;;;;;5.38;69.59;96027.22;1700271;84;21047;-84
2022/02/22 11:03:57;;;;;;;9.10;5.33;;;;;;;5.47;70.23;96028.84;1700447;84;21059;-84
2022/02/22 11:06:22;;;;;;;7.25;4.65;;;;;;;5.60;70.23;96029.19;1700639;84;20988;-83
2022/02/22 11:08:53;;;;;;;3.87;3.10;;;;;;;5.70;69.64;96034.20;1700631;84;21031;-84
2022/02/22 11:11:37;;;;;;;7.17;4.67;;;;;;;5.79;69.75;96035.80;1699812;83;21118;-84
2022/02/22 11:14:08;;;;;;;5.72;4.05;;;;;;;5.96;69.93;96037.94;1700548;84;21031;-84
2022/02/22 11:16:45;;;;;;;7.92;5.42;;;;;;;6.19;69.36;96029.08;1700143;84;21043;-84
2022/02/22 11:19:35;;;;;;;5.12;3.90;;;;;;;6.27;69.16;96028.56;1695738;84;21105;-84
2022/02/22 11:22:23;;;;;;;4.90;3.40;;;;;;;6.35;68.92;96029.06;1700616;84;21130;-84
2022/02/22 11:24:59;;;;;;;3.42;2.55;;;;;;;6.38;68.02;96028.72;1669384;84;21457;-84
2022/02/22 11:27:34;;;;;;;4.50;2.65;;;;;;;6.38;67.31;96027.44;1700605;84;21498;-84
2022/02/22 11:30:15;;;;;;;4.80;2.67;;;;;;;6.35;66.71;96033.41;1700519;84;21095;-84
2022/02/22 11:32:57;;;;;;;3.20;2.33;;;;;;;6.28;66.50;96029.37;1668753;84;21709;-84
2022/02/22 11:35:24;;;;;;;4.72;3.33;;;;;;;6.23;66.37;96022.13;1668397;84;22145;-84